sensor_id;sensor_type;location;lat;lon;timestamp;pressure;altitude;pressure_sealevel;temperature;humidity
49709;BME280;35601;55.902;13.606;2023-04-01T00:01:15;99427.88;;;-2.66;92.93
49709;BME280;35601;55.902;13.606;2023-04-01T00:03:40;99425.55;;;-2.27;91.56
49709;BME280;35601;55.902;13.606;2023-04-01T00:06:09;99426.90;;;-2.29;91.58
49709;BME280;35601;55.902;13.606;2023-04-01T00:08:32;99428.33;;;-2.36;90.69
49709;BME280;35601;55.902;13.606;2023-04-01T00:10:56;99427.08;;;-2.12;89.67
49709;BME280;35601;55.902;13.606;2023-04-01T00:13:24;99426.22;;;-2.26;89.00
49709;BME280;35601;55.902;13.606;2023-04-01T00:15:48;99422.96;;;-2.25;89.64
49709;BME280;35601;55.902;13.606;2023-04-01T00:18:12;99422.51;;;-2.15;89.15
49709;BME280;35601;55.902;13.606;2023-04-01T00:20:37;99421.95;;;-2.40;91.15
49709;BME280;35601;55.902;13.606;2023-04-01T00:23:03;99425.38;;;-2.49;90.49
49709;BME280;35601;55.902;13.606;2023-04-01T00:25:29;99426.02;;;-2.65;90.38
49709;BME280;35601;55.902;13.606;2023-04-01T00:27:53;99427.09;;;-2.49;90.54
49709;BME280;35601;55.902;13.606;2023-04-01T00:30:19;99418.36;;;-2.86;90.32
49709;BME280;35601;55.902;13.606;2023-04-01T00:32:46;99427.90;;;-2.79;91.51
49709;BME280;35601;55.902;13.606;2023-04-01T00:35:10;99430.43;;;-2.91;93.14
49709;BME280;35601;55.902;13.606;2023-04-01T00:37:35;99431.08;;;-3.18;93.72
49709;BME280;35601;55.902;13.606;2023-04-01T00:40:00;99429.56;;;-2.86;92.81
49709;BME280;35601;55.902;13.606;2023-04-01T00:42:27;99428.47;;;-2.75;91.67
49709;BME280;35601;55.902;13.606;2023-04-01T00:44:52;99436.33;;;-3.22;91.49
49709;BME280;35601;55.902;13.606;2023-04-01T00:47:16;99438.74;;;-2.90;92.14
49709;BME280;35601;55.902;13.606;2023-04-01T00:49:45;99437.58;;;-2.54;90.92
49709;BME280;35601;55.902;13.606;2023-04-01T00:52:12;99439.20;;;-2.86;89.77
49709;BME280;35601;55.902;13.606;2023-04-01T00:54:32;99440.41;;;-3.13;91.81
49709;BME280;35601;55.902;13.606;2023-04-01T00:57:00;99442.88;;;-2.47;89.99
49709;BME280;35601;55.902;13.606;2023-04-01T00:59:25;99447.86;;;-2.83;89.84
49709;BME280;35601;55.902;13.606;2023-04-01T01:01:49;99446.53;;;-2.32;89.55
49709;BME280;35601;55.902;13.606;2023-04-01T01:04:23;99443.29;;;-3.05;90.13
49709;BME280;35601;55.902;13.606;2023-04-01T01:06:46;99442.24;;;-2.74;90.56
49709;BME280;35601;55.902;13.606;2023-04-01T01:09:14;99441.61;;;-2.87;91.11
49709;BME280;35601;55.902;13.606;2023-04-01T01:11:37;99442.66;;;-3.04;91.31
49709;BME280;35601;55.902;13.606;2023-04-01T01:14:01;99447.36;;;-2.73;91.35
49709;BME280;35601;55.902;13.606;2023-04-01T01:16:25;99443.21;;;-3.19;92.25
49709;BME280;35601;55.902;13.606;2023-04-01T01:18:50;99443.80;;;-2.77;91.31
49709;BME280;35601;55.902;13.606;2023-04-01T01:21:28;99450.01;;;-2.34;89.58
49709;BME280;35601;55.902;13.606;2023-04-01T01:23:47;99442.89;;;-2.76;90.83
49709;BME280;35601;55.902;13.606;2023-04-01T01:26:12;99444.98;;;-2.88;89.85
49709;BME280;35601;55.902;13.606;2023-04-01T01:28:36;99450.02;;;-2.92;89.49
49709;BME280;35601;55.902;13.606;2023-04-01T01:30:57;99452.05;;;-2.57;88.62
49709;BME280;35601;55.902;13.606;2023-04-01T01:33:25;99456.44;;;-2.98;89.78
49709;BME280;35601;55.902;13.606;2023-04-01T01:35:44;99454.17;;;-3.03;90.55
49709;BME280;35601;55.902;13.606;2023-04-01T01:38:10;99456.20;;;-2.66;90.95
49709;BME280;35601;55.902;13.606;2023-04-01T01:40:34;99458.18;;;-3.01;90.80
49709;BME280;35601;55.902;13.606;2023-04-01T01:43:02;99454.53;;;-2.76;90.40
49709;BME280;35601;55.902;13.606;2023-04-01T01:45:26;99450.31;;;-2.97;91.15
49709;BME280;35601;55.902;13.606;2023-04-01T01:47:50;99455.57;;;-2.62;90.14
49709;BME280;35601;55.902;13.606;2023-04-01T01:50:15;99457.22;;;-2.71;90.07
49709;BME280;35601;55.902;13.606;2023-04-01T01:52:40;99460.55;;;-3.07;91.16
49709;BME280;35601;55.902;13.606;2023-04-01T01:57:36;99461.05;;;-2.88;90.23
49709;BME280;35601;55.902;13.606;2023-04-01T02:00:03;99459.99;;;-2.32;88.86
49709;BME280;35601;55.902;13.606;2023-04-01T02:02:23;99464.91;;;-2.51;88.58
49709;BME280;35601;55.902;13.606;2023-04-01T02:04:49;99465.82;;;-2.89;88.53
49709;BME280;35601;55.902;13.606;2023-04-01T02:07:18;99461.82;;;-2.67;88.99
49709;BME280;35601;55.902;13.606;2023-04-01T02:09:39;99466.93;;;-2.82;88.59
49709;BME280;35601;55.902;13.606;2023-04-01T02:12:06;99468.84;;;-2.98;89.74
49709;BME280;35601;55.902;13.606;2023-04-01T02:14:35;99473.46;;;-2.42;88.99
49709;BME280;35601;55.902;13.606;2023-04-01T02:16:58;99470.92;;;-2.43;87.82
49709;BME280;35601;55.902;13.606;2023-04-01T02:19:21;99473.84;;;-2.39;86.80
49709;BME280;35601;55.902;13.606;2023-04-01T02:21:45;99472.35;;;-2.48;86.69
49709;BME280;35601;55.902;13.606;2023-04-01T02:24:13;99475.75;;;-2.29;86.06
49709;BME280;35601;55.902;13.606;2023-04-01T02:26:36;99474.31;;;-2.24;85.44
49709;BME280;35601;55.902;13.606;2023-04-01T02:29:02;99478.21;;;-2.77;86.41
49709;BME280;35601;55.902;13.606;2023-04-01T02:31:27;99479.15;;;-2.65;86.22
49709;BME280;35601;55.902;13.606;2023-04-01T02:33:52;99479.19;;;-2.24;85.84
49709;BME280;35601;55.902;13.606;2023-04-01T02:36:18;99475.01;;;-2.22;85.19
49709;BME280;35601;55.902;13.606;2023-04-01T02:38:45;99485.45;;;-2.49;86.11
49709;BME280;35601;55.902;13.606;2023-04-01T02:41:07;99487.12;;;-2.11;85.79
49709;BME280;35601;55.902;13.606;2023-04-01T02:43:33;99490.41;;;-2.55;86.05
49709;BME280;35601;55.902;13.606;2023-04-01T02:45:58;99490.77;;;-2.21;85.57
49709;BME280;35601;55.902;13.606;2023-04-01T02:48:24;99497.01;;;-2.83;87.20
49709;BME280;35601;55.902;13.606;2023-04-01T02:50:49;99496.55;;;-2.38;86.28
49709;BME280;35601;55.902;13.606;2023-04-01T02:53:16;99498.27;;;-2.07;85.05
49709;BME280;35601;55.902;13.606;2023-04-01T02:55:41;99501.71;;;-2.18;85.04
49709;BME280;35601;55.902;13.606;2023-04-01T02:58:05;99501.78;;;-2.37;84.43
49709;BME280;35601;55.902;13.606;2023-04-01T03:00:31;99503.36;;;-1.93;84.27
49709;BME280;35601;55.902;13.606;2023-04-01T03:02:56;99511.62;;;-2.21;85.12
49709;BME280;35601;55.902;13.606;2023-04-01T03:05:23;99518.96;;;-1.99;84.33
49709;BME280;35601;55.902;13.606;2023-04-01T03:07:47;99523.96;;;-2.19;84.33
49709;BME280;35601;55.902;13.606;2023-04-01T03:10:12;99526.20;;;-2.34;84.65
49709;BME280;35601;55.902;13.606;2023-04-01T03:12:38;99533.93;;;-2.32;84.76
49709;BME280;35601;55.902;13.606;2023-04-01T03:15:04;99532.03;;;-2.82;86.22
49709;BME280;35601;55.902;13.606;2023-04-01T03:17:28;99536.10;;;-2.55;85.70
49709;BME280;35601;55.902;13.606;2023-04-01T03:19:54;99540.98;;;-1.74;84.64
49709;BME280;35601;55.902;13.606;2023-04-01T03:22:19;99537.43;;;-2.02;84.30
49709;BME280;35601;55.902;13.606;2023-04-01T03:24:44;99538.85;;;-1.98;83.94
49709;BME280;35601;55.902;13.606;2023-04-01T03:27:09;99543.59;;;-2.04;83.80
49709;BME280;35601;55.902;13.606;2023-04-01T03:29:34;99545.69;;;-2.38;83.72
49709;BME280;35601;55.902;13.606;2023-04-01T03:31:59;99549.04;;;-2.27;83.16
49709;BME280;35601;55.902;13.606;2023-04-01T03:34:25;99551.04;;;-2.14;82.46
49709;BME280;35601;55.902;13.606;2023-04-01T03:36:50;99559.63;;;-2.54;83.40
49709;BME280;35601;55.902;13.606;2023-04-01T03:39:15;99557.89;;;-2.72;84.06
49709;BME280;35601;55.902;13.606;2023-04-01T03:41:41;99566.70;;;-2.51;84.02
49709;BME280;35601;55.902;13.606;2023-04-01T03:44:06;99568.30;;;-2.41;84.29
49709;BME280;35601;55.902;13.606;2023-04-01T03:46:31;99567.22;;;-2.37;84.31
49709;BME280;35601;55.902;13.606;2023-04-01T03:48:56;99571.57;;;-2.23;83.64
49709;BME280;35601;55.902;13.606;2023-04-01T03:51:22;99568.55;;;-2.10;83.41
49709;BME280;35601;55.902;13.606;2023-04-01T03:53:47;99570.31;;;-2.34;83.02
49709;BME280;35601;55.902;13.606;2023-04-01T03:56:13;99573.97;;;-4.14;84.67
49709;BME280;35601;55.902;13.606;2023-04-01T03:58:38;99579.18;;;-2.42;83.20
49709;BME280;35601;55.902;13.606;2023-04-01T04:01:03;99581.13;;;-2.55;83.26
49709;BME280;35601;55.902;13.606;2023-04-01T04:03:28;99579.32;;;-2.23;83.02
49709;BME280;35601;55.902;13.606;2023-04-01T04:05:54;99576.88;;;-2.36;82.88
49709;BME280;35601;55.902;13.606;2023-04-01T04:08:19;99591.67;;;-2.52;82.89
49709;BME280;35601;55.902;13.606;2023-04-01T04:10:44;99594.77;;;-2.31;82.63
49709;BME280;35601;55.902;13.606;2023-04-01T04:13:10;99598.16;;;-2.37;82.57
49709;BME280;35601;55.902;13.606;2023-04-01T04:15:35;99603.17;;;-2.30;82.20
49709;BME280;35601;55.902;13.606;2023-04-01T04:18:00;99606.47;;;-2.30;82.34
49709;BME280;35601;55.902;13.606;2023-04-01T04:20:26;99606.70;;;-2.14;81.82
49709;BME280;35601;55.902;13.606;2023-04-01T04:22:51;99610.51;;;-2.08;81.45
49709;BME280;35601;55.902;13.606;2023-04-01T04:25:16;99614.66;;;-2.83;83.29
49709;BME280;35601;55.902;13.606;2023-04-01T04:27:41;99619.06;;;-2.76;84.54
49709;BME280;35601;55.902;13.606;2023-04-01T04:30:08;99617.87;;;-2.67;82.68
49709;BME280;35601;55.902;13.606;2023-04-01T04:32:32;99624.76;;;-2.66;82.19
49709;BME280;35601;55.902;13.606;2023-04-01T04:34:57;99627.58;;;-2.39;81.65
49709;BME280;35601;55.902;13.606;2023-04-01T04:37:23;99628.08;;;-2.12;81.04
49709;BME280;35601;55.902;13.606;2023-04-01T04:39:48;99635.00;;;-2.08;80.54
49709;BME280;35601;55.902;13.606;2023-04-01T04:42:13;99634.12;;;-2.20;80.44
49709;BME280;35601;55.902;13.606;2023-04-01T04:44:39;99635.23;;;-2.78;80.64
49709;BME280;35601;55.902;13.606;2023-04-01T04:47:04;99637.38;;;-2.33;79.88
49709;BME280;35601;55.902;13.606;2023-04-01T04:49:30;99638.71;;;-3.85;80.38
49709;BME280;35601;55.902;13.606;2023-04-01T04:51:55;99644.31;;;-3.05;80.05
49709;BME280;35601;55.902;13.606;2023-04-01T04:54:20;99652.52;;;-2.52;78.42
49709;BME280;35601;55.902;13.606;2023-04-01T04:56:45;99658.82;;;-2.81;79.43
49709;BME280;35601;55.902;13.606;2023-04-01T04:59:11;99660.65;;;-2.94;79.12
49709;BME280;35601;55.902;13.606;2023-04-01T05:01:36;99668.63;;;-2.79;79.40
49709;BME280;35601;55.902;13.606;2023-04-01T05:04:01;99670.42;;;-3.12;78.85
49709;BME280;35601;55.902;13.606;2023-04-01T05:06:27;99673.40;;;-2.83;78.72
49709;BME280;35601;55.902;13.606;2023-04-01T05:08:53;99671.85;;;-2.90;78.45
49709;BME280;35601;55.902;13.606;2023-04-01T05:11:19;99675.95;;;-2.45;78.00
49709;BME280;35601;55.902;13.606;2023-04-01T05:13:44;99681.97;;;-2.55;77.77
49709;BME280;35601;55.902;13.606;2023-04-01T05:16:09;99683.49;;;-2.89;76.54
49709;BME280;35601;55.902;13.606;2023-04-01T05:18:36;99684.25;;;-2.67;76.42
49709;BME280;35601;55.902;13.606;2023-04-01T05:20:59;99683.79;;;-2.90;75.80
49709;BME280;35601;55.902;13.606;2023-04-01T05:23:27;99687.92;;;-2.78;75.88
49709;BME280;35601;55.902;13.606;2023-04-01T05:25:50;99692.37;;;-2.94;75.71
49709;BME280;35601;55.902;13.606;2023-04-01T05:28:16;99687.82;;;-2.85;75.69
49709;BME280;35601;55.902;13.606;2023-04-01T05:30:41;99695.97;;;-3.01;75.75
49709;BME280;35601;55.902;13.606;2023-04-01T05:33:07;99695.20;;;-2.52;75.26
49709;BME280;35601;55.902;13.606;2023-04-01T05:35:34;99695.50;;;-2.86;74.36
49709;BME280;35601;55.902;13.606;2023-04-01T05:37:58;99698.70;;;-2.78;74.76
49709;BME280;35601;55.902;13.606;2023-04-01T05:40:24;99708.01;;;-3.14;75.51
49709;BME280;35601;55.902;13.606;2023-04-01T05:42:48;99709.76;;;-3.15;75.81
49709;BME280;35601;55.902;13.606;2023-04-01T05:45:15;99712.73;;;-3.06;75.42
49709;BME280;35601;55.902;13.606;2023-04-01T05:47:39;99719.18;;;-3.20;74.43
49709;BME280;35601;55.902;13.606;2023-04-01T05:50:05;99726.46;;;-3.12;74.00
49709;BME280;35601;55.902;13.606;2023-04-01T05:52:29;99722.90;;;-3.32;75.30
49709;BME280;35601;55.902;13.606;2023-04-01T05:54:56;99725.65;;;-3.31;74.99
49709;BME280;35601;55.902;13.606;2023-04-01T05:57:22;99720.62;;;-2.90;74.48
49709;BME280;35601;55.902;13.606;2023-04-01T05:59:45;99727.54;;;-2.82;73.68
49709;BME280;35601;55.902;13.606;2023-04-01T06:02:11;99728.05;;;-3.42;74.18
49709;BME280;35601;55.902;13.606;2023-04-01T06:04:39;99738.60;;;-3.59;74.75
49709;BME280;35601;55.902;13.606;2023-04-01T06:09:29;99731.90;;;-2.76;74.17
49709;BME280;35601;55.902;13.606;2023-04-01T06:14:29;99739.92;;;-3.30;74.12
49709;BME280;35601;55.902;13.606;2023-04-01T06:16:54;99740.22;;;-3.32;74.19
49709;BME280;35601;55.902;13.606;2023-04-01T06:19:19;99733.27;;;-2.86;72.92
49709;BME280;35601;55.902;13.606;2023-04-01T06:21:53;99742.91;;;-3.07;73.19
49709;BME280;35601;55.902;13.606;2023-04-01T06:24:08;99743.71;;;-3.03;72.73
49709;BME280;35601;55.902;13.606;2023-04-01T06:26:30;99738.56;;;-3.12;70.69
49709;BME280;35601;55.902;13.606;2023-04-01T06:31:26;99743.07;;;-2.52;71.20
49709;BME280;35601;55.902;13.606;2023-04-01T06:33:52;99745.67;;;-2.68;70.59
49709;BME280;35601;55.902;13.606;2023-04-01T06:36:19;99746.83;;;-2.61;70.79
49709;BME280;35601;55.902;13.606;2023-04-01T06:43:33;99766.04;;;-2.79;70.74
49709;BME280;35601;55.902;13.606;2023-04-01T06:45:54;99775.48;;;-2.70;69.84
49709;BME280;35601;55.902;13.606;2023-04-01T06:50:47;99772.16;;;-2.68;69.97
49709;BME280;35601;55.902;13.606;2023-04-01T06:53:10;99770.40;;;-2.41;69.76
49709;BME280;35601;55.902;13.606;2023-04-01T06:55:35;99779.27;;;-2.92;69.58
49709;BME280;35601;55.902;13.606;2023-04-01T06:57:57;99771.93;;;-2.39;68.25
49709;BME280;35601;55.902;13.606;2023-04-01T07:00:27;99768.75;;;-2.24;68.26
49709;BME280;35601;55.902;13.606;2023-04-01T07:02:49;99771.40;;;-1.85;68.28
49709;BME280;35601;55.902;13.606;2023-04-01T07:05:11;99770.58;;;-2.00;66.43
49709;BME280;35601;55.902;13.606;2023-04-01T07:07:41;99779.20;;;-2.40;66.43
49709;BME280;35601;55.902;13.606;2023-04-01T07:10:05;99772.81;;;-1.75;66.32
49709;BME280;35601;55.902;13.606;2023-04-01T07:12:38;99785.25;;;-2.49;65.36
49709;BME280;35601;55.902;13.606;2023-04-01T07:14:53;99781.16;;;-2.28;65.63
49709;BME280;35601;55.902;13.606;2023-04-01T07:17:22;99789.20;;;-2.86;65.78
49709;BME280;35601;55.902;13.606;2023-04-01T07:19:47;99787.77;;;-2.73;66.69
49709;BME280;35601;55.902;13.606;2023-04-01T07:22:19;99784.90;;;-2.53;67.55
49709;BME280;35601;55.902;13.606;2023-04-01T07:24:36;99785.30;;;-2.66;65.68
49709;BME280;35601;55.902;13.606;2023-04-01T07:27:01;99798.80;;;-2.61;64.96
49709;BME280;35601;55.902;13.606;2023-04-01T07:29:26;99798.68;;;-2.51;65.28
49709;BME280;35601;55.902;13.606;2023-04-01T07:32:07;99810.78;;;-3.16;65.90
49709;BME280;35601;55.902;13.606;2023-04-01T07:34:22;99811.84;;;-2.64;65.94
49709;BME280;35601;55.902;13.606;2023-04-01T07:36:47;99813.70;;;-2.58;64.74
49709;BME280;35601;55.902;13.606;2023-04-01T07:39:19;99813.05;;;-2.86;65.44
49709;BME280;35601;55.902;13.606;2023-04-01T07:41:40;99822.79;;;-3.15;64.71
49709;BME280;35601;55.902;13.606;2023-04-01T07:44:08;99826.04;;;-2.56;66.26
49709;BME280;35601;55.902;13.606;2023-04-01T07:46:38;99832.60;;;-2.48;66.03
49709;BME280;35601;55.902;13.606;2023-04-01T07:48:54;99832.01;;;-2.21;65.20
49709;BME280;35601;55.902;13.606;2023-04-01T07:51:19;99821.85;;;-1.96;63.66
49709;BME280;35601;55.902;13.606;2023-04-01T07:53:46;99844.74;;;-2.50;62.19
49709;BME280;35601;55.902;13.606;2023-04-01T07:56:10;99837.88;;;-2.18;62.60
49709;BME280;35601;55.902;13.606;2023-04-01T07:58:35;99847.59;;;-2.14;63.74
49709;BME280;35601;55.902;13.606;2023-04-01T08:01:01;99841.70;;;-1.49;62.90
49709;BME280;35601;55.902;13.606;2023-04-01T08:03:33;99852.90;;;-1.95;62.59
49709;BME280;35601;55.902;13.606;2023-04-01T08:05:55;99847.44;;;-1.76;61.95
49709;BME280;35601;55.902;13.606;2023-04-01T08:08:18;99854.78;;;-1.75;61.80
49709;BME280;35601;55.902;13.606;2023-04-01T08:10:44;99854.31;;;-1.25;61.74
49709;BME280;35601;55.902;13.606;2023-04-01T08:13:10;99861.97;;;-0.83;61.01
49709;BME280;35601;55.902;13.606;2023-04-01T08:15:30;99859.12;;;-1.05;59.02
49709;BME280;35601;55.902;13.606;2023-04-01T08:18:04;99863.69;;;-0.55;58.91
49709;BME280;35601;55.902;13.606;2023-04-01T08:20:28;99863.95;;;-0.45;59.11
49709;BME280;35601;55.902;13.606;2023-04-01T08:22:49;99865.69;;;0.02;57.86
49709;BME280;35601;55.902;13.606;2023-04-01T08:25:17;99870.10;;;-0.37;55.55
49709;BME280;35601;55.902;13.606;2023-04-01T08:27:39;99880.33;;;-0.12;55.94
49709;BME280;35601;55.902;13.606;2023-04-01T08:30:06;99876.78;;;-0.10;56.08
49709;BME280;35601;55.902;13.606;2023-04-01T08:32:28;99879.68;;;0.19;56.72
49709;BME280;35601;55.902;13.606;2023-04-01T08:35:01;99885.04;;;0.08;53.49
49709;BME280;35601;55.902;13.606;2023-04-01T08:37:21;99879.74;;;-0.13;53.85
49709;BME280;35601;55.902;13.606;2023-04-01T08:39:46;99886.44;;;0.13;54.68
49709;BME280;35601;55.902;13.606;2023-04-01T08:44:41;99886.23;;;1.07;53.75
49709;BME280;35601;55.902;13.606;2023-04-01T08:47:11;99887.25;;;1.39;52.41
49709;BME280;35601;55.902;13.606;2023-04-01T08:49:36;99889.43;;;1.88;51.84
49709;BME280;35601;55.902;13.606;2023-04-01T08:52:05;99893.66;;;1.54;49.28
49709;BME280;35601;55.902;13.606;2023-04-01T08:54:27;99897.49;;;1.69;49.24
49709;BME280;35601;55.902;13.606;2023-04-01T08:56:46;99897.22;;;2.01;48.54
49709;BME280;35601;55.902;13.606;2023-04-01T08:59:22;99900.55;;;1.64;49.47
49709;BME280;35601;55.902;13.606;2023-04-01T09:01:46;99899.88;;;1.36;48.80
49709;BME280;35601;55.902;13.606;2023-04-01T09:04:08;99896.43;;;0.84;48.98
49709;BME280;35601;55.902;13.606;2023-04-01T09:06:32;99902.10;;;1.07;49.21
49709;BME280;35601;55.902;13.606;2023-04-01T09:11:20;99905.17;;;1.86;49.44
49709;BME280;35601;55.902;13.606;2023-04-01T09:16:19;99901.23;;;1.05;46.51
49709;BME280;35601;55.902;13.606;2023-04-01T09:18:41;99911.95;;;1.14;47.63
49709;BME280;35601;55.902;13.606;2023-04-01T09:21:05;99908.37;;;1.44;46.66
49709;BME280;35601;55.902;13.606;2023-04-01T09:23:31;99907.97;;;1.42;45.50
49709;BME280;35601;55.902;13.606;2023-04-01T09:25:53;99919.53;;;1.48;45.03
49709;BME280;35601;55.902;13.606;2023-04-01T09:28:10;99925.60;;;1.24;45.07
49709;BME280;35601;55.902;13.606;2023-04-01T09:33:11;99927.89;;;0.60;47.35
49709;BME280;35601;55.902;13.606;2023-04-01T09:35:24;99933.34;;;0.91;48.40
49709;BME280;35601;55.902;13.606;2023-04-01T09:37:54;99931.03;;;1.58;48.16
49709;BME280;35601;55.902;13.606;2023-04-01T09:40:17;99942.76;;;2.07;46.83
49709;BME280;35601;55.902;13.606;2023-04-01T09:42:45;99947.14;;;2.00;45.92
49709;BME280;35601;55.902;13.606;2023-04-01T09:45:09;99942.26;;;1.51;44.23
49709;BME280;35601;55.902;13.606;2023-04-01T09:47:43;99943.86;;;1.89;44.27
49709;BME280;35601;55.902;13.606;2023-04-01T09:50:14;99951.98;;;2.35;43.44
49709;BME280;35601;55.902;13.606;2023-04-01T09:52:32;99942.52;;;2.50;40.74
49709;BME280;35601;55.902;13.606;2023-04-01T09:55:00;99943.85;;;2.64;40.56
49709;BME280;35601;55.902;13.606;2023-04-01T09:57:27;99944.82;;;2.58;40.09
49709;BME280;35601;55.902;13.606;2023-04-01T09:59:51;99950.79;;;2.39;39.94
49709;BME280;35601;55.902;13.606;2023-04-01T10:12:00;99958.50;;;3.39;39.78
49709;BME280;35601;55.902;13.606;2023-04-01T10:19:15;99959.44;;;3.74;39.34
49709;BME280;35601;55.902;13.606;2023-04-01T10:26:28;99967.00;;;4.21;37.74
49709;BME280;35601;55.902;13.606;2023-04-01T10:40:53;99971.75;;;3.80;37.22
49709;BME280;35601;55.902;13.606;2023-04-01T10:48:15;99973.72;;;4.23;38.60
49709;BME280;35601;55.902;13.606;2023-04-01T10:53:07;99984.15;;;4.59;36.82
49709;BME280;35601;55.902;13.606;2023-04-01T11:00:22;99984.18;;;5.46;36.47
49709;BME280;35601;55.902;13.606;2023-04-01T11:26:52;99998.69;;;5.46;34.93
49709;BME280;35601;55.902;13.606;2023-04-01T11:31:49;99992.03;;;4.84;34.34
49709;BME280;35601;55.902;13.606;2023-04-01T11:34:07;100005.06;;;5.40;32.42
49709;BME280;35601;55.902;13.606;2023-04-01T11:36:37;100005.51;;;5.42;34.52
49709;BME280;35601;55.902;13.606;2023-04-01T11:39:03;100007.81;;;5.44;33.51
49709;BME280;35601;55.902;13.606;2023-04-01T11:41:26;100011.82;;;4.78;32.81
49709;BME280;35601;55.902;13.606;2023-04-01T11:43:50;100013.10;;;5.41;33.57
49709;BME280;35601;55.902;13.606;2023-04-01T11:46:14;100014.65;;;5.19;33.30
49709;BME280;35601;55.902;13.606;2023-04-01T11:48:48;100011.63;;;5.89;33.26
49709;BME280;35601;55.902;13.606;2023-04-01T11:51:11;100019.55;;;5.56;32.77
49709;BME280;35601;55.902;13.606;2023-04-01T11:53:34;100023.30;;;5.94;33.40
49709;BME280;35601;55.902;13.606;2023-04-01T11:56:00;100024.16;;;5.94;32.23
49709;BME280;35601;55.902;13.606;2023-04-01T11:58:34;100018.75;;;5.66;33.89
49709;BME280;35601;55.902;13.606;2023-04-01T12:00:53;100023.06;;;5.98;32.22
49709;BME280;35601;55.902;13.606;2023-04-01T12:03:20;100024.36;;;6.39;32.47
49709;BME280;35601;55.902;13.606;2023-04-01T12:05:43;100028.95;;;6.64;32.13
49709;BME280;35601;55.902;13.606;2023-04-01T12:08:08;100030.89;;;6.49;32.46
49709;BME280;35601;55.902;13.606;2023-04-01T12:10:24;100023.24;;;5.15;31.44
49709;BME280;35601;55.902;13.606;2023-04-01T12:12:53;100032.93;;;6.13;32.05
49709;BME280;35601;55.902;13.606;2023-04-01T12:15:20;100033.42;;;6.29;31.74
49709;BME280;35601;55.902;13.606;2023-04-01T12:17:43;100037.44;;;6.67;30.52
49709;BME280;35601;55.902;13.606;2023-04-01T12:22:36;100043.26;;;6.41;31.30
49709;BME280;35601;55.902;13.606;2023-04-01T12:25:01;100043.06;;;5.94;31.18
49709;BME280;35601;55.902;13.606;2023-04-01T12:27:29;100042.77;;;6.57;32.32
49709;BME280;35601;55.902;13.606;2023-04-01T12:29:58;100039.64;;;6.48;31.80
49709;BME280;35601;55.902;13.606;2023-04-01T12:32:17;100048.87;;;6.15;31.62
49709;BME280;35601;55.902;13.606;2023-04-01T12:37:05;100048.03;;;5.69;31.25
49709;BME280;35601;55.902;13.606;2023-04-01T12:39:37;100047.85;;;5.74;31.77
49709;BME280;35601;55.902;13.606;2023-04-01T12:41:55;100061.36;;;5.12;31.68
49709;BME280;35601;55.902;13.606;2023-04-01T12:46:52;100055.64;;;4.29;33.89
49709;BME280;35601;55.902;13.606;2023-04-01T12:49:19;100064.80;;;4.91;33.61
49709;BME280;35601;55.902;13.606;2023-04-01T12:51:41;100067.60;;;5.40;33.36
49709;BME280;35601;55.902;13.606;2023-04-01T12:56:27;100076.83;;;5.20;33.11
49709;BME280;35601;55.902;13.606;2023-04-01T12:58:56;100075.67;;;5.18;31.66
49709;BME280;35601;55.902;13.606;2023-04-01T13:03:50;100075.52;;;5.49;31.77
49709;BME280;35601;55.902;13.606;2023-04-01T13:06:13;100088.26;;;4.55;31.14
49709;BME280;35601;55.902;13.606;2023-04-01T13:08:37;100084.69;;;5.43;31.00
49709;BME280;35601;55.902;13.606;2023-04-01T13:11:00;100093.05;;;4.94;31.75
49709;BME280;35601;55.902;13.606;2023-04-01T13:15:46;100094.62;;;5.07;32.71
49709;BME280;35601;55.902;13.606;2023-04-01T13:18:18;100101.45;;;4.85;31.35
49709;BME280;35601;55.902;13.606;2023-04-01T13:20:43;100099.30;;;5.10;31.85
49709;BME280;35601;55.902;13.606;2023-04-01T13:23:11;100103.50;;;5.17;32.47
49709;BME280;35601;55.902;13.606;2023-04-01T13:25:28;100108.53;;;5.27;32.33
49709;BME280;35601;55.902;13.606;2023-04-01T13:27:53;100102.78;;;4.96;31.15
49709;BME280;35601;55.902;13.606;2023-04-01T13:30:24;100106.19;;;4.82;32.55
49709;BME280;35601;55.902;13.606;2023-04-01T13:32:45;100108.82;;;5.42;32.24
49709;BME280;35601;55.902;13.606;2023-04-01T13:35:15;100108.48;;;5.19;31.29
49709;BME280;35601;55.902;13.606;2023-04-01T13:42:24;100114.76;;;5.07;32.83
49709;BME280;35601;55.902;13.606;2023-04-01T13:44:49;100122.48;;;4.54;32.11
49709;BME280;35601;55.902;13.606;2023-04-01T13:52:12;100118.88;;;5.32;32.34
49709;BME280;35601;55.902;13.606;2023-04-01T13:54:39;100127.30;;;5.28;30.89
49709;BME280;35601;55.902;13.606;2023-04-01T13:57:02;100125.48;;;5.14;31.94
49709;BME280;35601;55.902;13.606;2023-04-01T14:01:48;100133.86;;;4.79;31.93
49709;BME280;35601;55.902;13.606;2023-04-01T14:04:23;100130.11;;;5.02;32.26
49709;BME280;35601;55.902;13.606;2023-04-01T14:06:39;100145.53;;;5.01;33.00
49709;BME280;35601;55.902;13.606;2023-04-01T14:09:07;100143.62;;;4.81;32.56
49709;BME280;35601;55.902;13.606;2023-04-01T14:11:27;100144.05;;;4.72;32.02
49709;BME280;35601;55.902;13.606;2023-04-01T14:13:59;100144.31;;;4.64;32.08
49709;BME280;35601;55.902;13.606;2023-04-01T14:18:54;100154.19;;;4.79;33.04
49709;BME280;35601;55.902;13.606;2023-04-01T14:23:41;100154.22;;;4.74;31.55
49709;BME280;35601;55.902;13.606;2023-04-01T14:26:09;100161.11;;;4.82;31.01
49709;BME280;35601;55.902;13.606;2023-04-01T14:28:28;100158.01;;;5.17;31.28
49709;BME280;35601;55.902;13.606;2023-04-01T14:30:58;100163.49;;;5.18;30.00
49709;BME280;35601;55.902;13.606;2023-04-01T14:33:22;100170.07;;;4.59;30.17
49709;BME280;35601;55.902;13.606;2023-04-01T14:35:38;100166.43;;;4.49;31.64
49709;BME280;35601;55.902;13.606;2023-04-01T14:38:20;100169.86;;;4.67;31.95
49709;BME280;35601;55.902;13.606;2023-04-01T14:40:28;100181.64;;;5.01;32.22
49709;BME280;35601;55.902;13.606;2023-04-01T14:43:07;100178.95;;;5.00;31.79
49709;BME280;35601;55.902;13.606;2023-04-01T14:45:32;100186.36;;;4.82;31.79
49709;BME280;35601;55.902;13.606;2023-04-01T14:47:47;100193.78;;;4.28;32.07